Time;durP1;ratioP1;P1;durP2;ratioP2;P2;SDS_P1;SDS_P2;PMS_P1;PMS_P2;Temp;Humidity;BMP_temperature;BMP_pressure;BME280_temperature;BME280_humidity;BME280_pressure;Samples;Min_cycle;Max_cycle;Signal;HPM_P1;HPM_P2
2021/12/16 00:07:51;;;;;;;45.13;12.15;;;7.10;99.90;;;;;;4844648;29;20105;-87
2021/12/16 00:10:34;;;;;;;45.13;11.98;;;7.10;99.90;;;;;;4829868;29;20052;-88
2021/12/16 00:30:06;;;;;;;37.00;12.07;;;7.20;99.90;;;;;;4844882;29;20061;-87
2021/12/16 00:33:10;;;;;;;39.80;10.52;;;7.20;99.90;;;;;;4829992;29;20050;-87
2021/12/16 00:35:51;;;;;;;34.50;10.07;;;7.20;99.90;;;;;;4844278;29;20068;-87
2021/12/16 00:38:26;;;;;;;27.15;9.85;;;7.30;99.90;;;;;;4844304;29;20052;-87
2021/12/16 00:40:52;;;;;;;30.95;10.20;;;7.20;99.90;;;;;;4844273;29;20054;-88
2021/12/16 00:43:33;;;;;;;39.90;10.57;;;7.30;99.90;;;;;;4844331;29;20045;-88
2021/12/16 00:56:35;;;;;;;29.00;9.18;;;7.40;99.90;;;;;;4806880;29;20458;-88
2021/12/16 00:59:13;;;;;;;32.13;8.45;;;7.40;99.90;;;;;;4806377;29;20058;-88
2021/12/16 01:35:00;;;;;;;32.00;7.55;;;7.70;99.90;;;;;;4837472;29;20092;-84
2021/12/16 01:50:38;;;;;;;32.40;7.60;;;7.80;99.90;;;;;;4865414;29;20064;-84
2021/12/16 01:56:10;;;;;;;28.48;5.95;;;7.80;99.90;;;;;;4865414;29;20400;-84
2021/12/16 01:58:35;;;;;;;32.95;6.22;;;7.80;99.90;;;;;;4865452;29;20539;-84
2021/12/16 02:01:17;;;;;;;27.38;5.80;;;7.80;99.90;;;;;;4865004;29;20041;-84
2021/12/16 02:03:52;;;;;;;23.00;6.30;;;7.90;99.90;;;;;;4881908;29;20088;-84
2021/12/16 02:08:52;;;;;;;27.42;6.22;;;7.90;99.90;;;;;;4865164;29;20077;-84
2021/12/16 02:33:52;;;;;;;25.60;6.45;;;7.70;99.90;;;;;;4881364;29;20076;-85
2021/12/16 02:36:36;;;;;;;33.40;5.32;;;7.60;99.90;;;;;;4864363;29;20097;-84
2021/12/16 02:39:21;;;;;;;31.10;5.95;;;7.50;99.90;;;;;;4881293;29;20044;-85
2021/12/16 02:41:49;;;;;;;20.83;5.50;;;7.50;99.90;;;;;;4864527;29;20065;-85
2021/12/16 02:49:28;;;;;;;25.58;5.00;;;7.40;99.90;;;;;;4864164;29;20409;-85
2021/12/16 02:51:57;;;;;;;17.98;4.90;;;7.30;99.90;;;;;;4864470;29;20049;-85
2021/12/16 02:54:24;;;;;;;18.33;5.25;;;7.30;99.90;;;;;;4864190;29;20076;-85
2021/12/16 02:56:50;;;;;;;20.10;5.35;;;7.30;99.90;;;;;;4864554;29;20049;-84
2021/12/16 02:59:19;;;;;;;23.23;5.30;;;7.20;99.90;;;;;;4863923;29;20128;-85
2021/12/16 03:01:52;;;;;;;27.38;5.32;;;7.20;99.90;;;;;;4863873;29;20131;-85
2021/12/16 03:04:18;;;;;;;;;;;7.20;99.90;;;;;;4864685;29;20049;-85
2021/12/16 03:06:46;;;;;;;20.02;6.22;;;7.20;99.90;;;;;;4860686;29;20395;-85
2021/12/16 03:09:16;;;;;;;26.27;6.40;;;7.10;99.90;;;;;;4860958;29;20045;-85
2021/12/16 03:11:54;;;;;;;16.85;5.13;;;7.10;99.90;;;;;;4860694;29;20049;-85
2021/12/16 03:14:29;;;;;;;28.08;6.13;;;7.10;99.90;;;;;;4862324;29;20089;-85
2021/12/16 03:22:05;;;;;;;22.20;5.75;;;7.00;99.90;;;;;;4860682;29;20057;-85
2021/12/16 03:25:44;;;;;;;25.20;6.53;;;7.00;99.90;;;;;;4860564;29;20049;-84
2021/12/16 03:28:07;;;;;;;25.33;5.80;;;7.00;99.90;;;;;;4848409;29;20058;-84
2021/12/16 03:33:28;;;;;;;17.48;4.60;;;6.90;99.90;;;;;;4860615;29;20061;-84
2021/12/16 03:38:13;;;;;;;15.50;5.75;;;6.80;99.90;;;;;;4860531;29;20123;-84
2021/12/16 03:40:39;;;;;;;21.00;5.82;;;6.80;99.90;;;;;;4860313;29;20046;-84
2021/12/16 03:43:14;;;;;;;20.73;6.13;;;6.70;99.90;;;;;;4861926;29;20139;-84
2021/12/16 03:48:54;;;;;;;23.10;6.68;;;6.70;99.90;;;;;;4860317;29;20064;-85
2021/12/16 03:51:41;;;;;;;22.58;6.45;;;6.60;99.90;;;;;;4860386;29;20061;-85
2021/12/16 03:54:18;;;;;;;28.20;6.32;;;6.60;99.90;;;;;;4860205;29;20054;-84
2021/12/16 03:56:45;;;;;;;27.08;6.80;;;6.60;99.90;;;;;;4860322;29;20045;-84
2021/12/16 03:59:13;;;;;;;24.52;7.07;;;6.60;99.90;;;;;;4860204;29;20056;-84
2021/12/16 04:01:38;;;;;;;24.30;6.50;;;6.60;99.90;;;;;;4860126;29;20053;-84
2021/12/16 04:04:05;;;;;;;23.23;6.38;;;6.60;99.90;;;;;;4860306;29;20481;-84
2021/12/16 04:06:34;;;;;;;21.77;7.00;;;6.60;99.90;;;;;;4859938;29;20113;-84
2021/12/16 04:09:00;;;;;;;26.15;6.75;;;6.50;99.90;;;;;;4861330;29;20050;-84
2021/12/16 04:11:38;;;;;;;22.83;7.05;;;6.60;99.90;;;;;;4860092;29;20090;-85
2021/12/16 04:14:05;;;;;;;18.08;6.07;;;6.50;99.90;;;;;;4860132;29;20082;-85
2021/12/16 04:16:45;;;;;;;20.52;6.60;;;6.50;99.90;;;;;;4860178;29;20050;-85
2021/12/16 04:19:15;;;;;;;21.67;6.15;;;6.40;99.90;;;;;;4861333;29;20041;-85
2021/12/16 04:21:46;;;;;;;25.67;8.07;;;6.40;99.90;;;;;;4859996;29;20056;-85
2021/12/16 04:24:12;;;;;;;16.35;6.28;;;6.40;99.90;;;;;;4860075;29;20057;-85
2021/12/16 04:26:40;;;;;;;23.25;6.95;;;6.30;99.90;;;;;;4860010;29;20580;-85
2021/12/16 04:29:07;;;;;;;26.50;6.85;;;6.30;99.90;;;;;;4860122;29;20061;-85
2021/12/16 04:31:35;;;;;;;17.73;6.40;;;6.30;99.90;;;;;;4859850;29;20053;-85
2021/12/16 04:34:01;;;;;;;26.30;7.35;;;6.20;99.90;;;;;;4860137;29;20045;-85
2021/12/16 04:36:26;;;;;;;23.00;7.20;;;6.20;99.90;;;;;;4861104;29;20099;-85
2021/12/16 04:38:53;;;;;;;26.58;7.85;;;6.20;99.90;;;;;;4859638;29;20084;-85
2021/12/16 04:41:19;;;;;;;19.80;6.65;;;6.20;99.90;;;;;;4861446;29;20449;-85
2021/12/16 04:43:48;;;;;;;23.55;6.60;;;6.20;99.90;;;;;;4862142;29;20124;-85
2021/12/16 04:46:18;;;;;;;21.45;6.63;;;6.20;99.90;;;;;;4863551;29;20089;-85
2021/12/16 04:48:46;;;;;;;19.05;6.38;;;6.20;99.90;;;;;;4864574;29;20054;-84
2021/12/16 04:51:12;;;;;;;21.08;6.53;;;6.10;99.90;;;;;;4863708;29;20053;-84
2021/12/16 04:53:40;;;;;;;19.33;6.50;;;6.10;99.90;;;;;;4863510;29;20068;-84
2021/12/16 04:56:08;;;;;;;23.25;6.60;;;6.20;99.90;;;;;;4863797;29;20057;-84
2021/12/16 04:58:34;;;;;;;21.13;7.38;;;6.20;99.90;;;;;;4863117;29;20139;-84
2021/12/16 05:01:01;;;;;;;22.95;6.10;;;6.10;99.90;;;;;;4863076;29;20174;-85
2021/12/16 05:03:27;;;;;;;28.73;5.88;;;6.10;99.90;;;;;;4863376;29;20132;-85
2021/12/16 05:05:54;;;;;;;21.23;7.00;;;6.00;99.90;;;;;;4862981;29;20067;-85
2021/12/16 05:08:20;;;;;;;21.33;7.55;;;6.00;99.90;;;;;;4862838;29;20076;-85
2021/12/16 05:10:48;;;;;;;16.88;7.18;;;6.00;99.90;;;;;;4862907;29;20128;-85
2021/12/16 05:13:15;;;;;;;26.63;7.53;;;6.00;99.90;;;;;;4862909;29;20086;-85
2021/12/16 05:15:42;;;;;;;23.92;7.38;;;6.00;99.90;;;;;;4862886;29;20057;-84
2021/12/16 05:18:12;;;;;;;25.25;7.50;;;6.00;99.90;;;;;;4864102;29;20156;-85
2021/12/16 05:20:43;;;;;;;26.35;7.00;;;6.00;99.90;;;;;;4863017;29;20050;-85
2021/12/16 05:26:18;;;;;;;21.90;7.93;;;6.10;99.90;;;;;;4862937;29;20139;-85
2021/12/16 05:28:46;;;;;;;20.05;6.57;;;6.10;99.90;;;;;;4862240;29;20061;-85
2021/12/16 05:31:13;;;;;;;22.63;7.03;;;6.10;99.90;;;;;;4862964;29;20045;-85
2021/12/16 05:33:40;;;;;;;18.38;5.93;;;6.10;99.90;;;;;;4863878;29;20323;-85
2021/12/16 05:36:05;;;;;;;26.05;8.05;;;6.00;99.90;;;;;;4863700;29;20053;-85
2021/12/16 05:38:31;;;;;;;16.35;6.30;;;6.00;99.90;;;;;;4862490;29;20056;-85
2021/12/16 05:40:58;;;;;;;15.10;5.97;;;5.90;99.90;;;;;;4862311;29;20049;-85
2021/12/16 05:43:30;;;;;;;21.80;6.25;;;5.90;99.90;;;;;;4862651;29;20394;-85
2021/12/16 05:45:57;;;;;;;21.15;7.35;;;5.80;99.90;;;;;;4862631;29;20046;-85
2021/12/16 05:48:26;;;;;;;17.50;6.05;;;5.80;99.90;;;;;;4862486;29;20406;-85
2021/12/16 05:50:57;;;;;;;24.45;6.95;;;5.80;99.90;;;;;;4862290;29;20114;-85
2021/12/16 05:53:23;;;;;;;24.63;7.32;;;5.70;99.90;;;;;;4861885;29;20101;-85
2021/12/16 05:55:49;;;;;;;20.60;6.72;;;5.70;99.90;;;;;;4862142;29;20050;-85
2021/12/16 05:58:18;;;;;;;21.88;7.75;;;5.70;99.90;;;;;;4862130;29;20498;-85
2021/12/16 06:00:46;;;;;;;24.92;7.75;;;5.70;99.90;;;;;;4862164;29;20061;-85
2021/12/16 06:03:12;;;;;;;27.85;8.15;;;5.60;99.90;;;;;;4861984;29;20053;-85
2021/12/16 06:05:38;;;;;;;18.98;6.88;;;5.60;99.90;;;;;;4861977;29;20053;-85
2021/12/16 06:08:05;;;;;;;21.02;6.38;;;5.60;99.90;;;;;;4862067;29;20064;-85
2021/12/16 06:13:12;;;;;;;19.17;5.97;;;5.50;99.90;;;;;;4862080;29;20046;-85
2021/12/16 06:26:34;;;;;;;15.80;6.72;;;5.50;99.90;;;;;;4861612;29;20195;-85
2021/12/16 06:29:00;;;;;;;27.20;7.45;;;5.50;99.90;;;;;;4861664;29;20109;-85
2021/12/16 06:31:25;;;;;;;21.85;6.82;;;5.50;99.90;;;;;;4861619;29;20057;-85
2021/12/16 06:33:51;;;;;;;35.13;7.82;;;5.50;99.90;;;;;;4861783;29;20049;-84
2021/12/16 06:36:17;;;;;;;29.23;8.45;;;5.50;99.90;;;;;;4862719;29;20461;-84
2021/12/16 06:38:43;;;;;;;19.00;6.80;;;5.50;99.90;;;;;;4861358;29;20045;-84
2021/12/16 06:41:08;;;;;;;22.83;8.38;;;5.50;99.90;;;;;;4861267;29;20061;-84
2021/12/16 06:43:35;;;;;;;16.67;7.63;;;5.50;99.90;;;;;;4861610;29;20068;-84
2021/12/16 06:46:04;;;;;;;23.27;7.57;;;5.50;99.90;;;;;;4861324;29;20512;-84
2021/12/16 06:48:34;;;;;;;19.88;8.13;;;5.50;99.90;;;;;;4861143;29;20061;-85
2021/12/16 06:51:05;;;;;;;17.33;7.03;;;5.40;99.90;;;;;;4861156;29;20075;-85
2021/12/16 06:53:48;;;;;;;26.60;7.40;;;5.40;99.90;;;;;;4861428;29;20124;-85
2021/12/16 06:56:26;;;;;;;16.83;7.07;;;5.30;99.90;;;;;;4861278;29;20058;-85
2021/12/16 06:59:09;;;;;;;15.40;6.75;;;5.30;99.90;;;;;;4861483;29;20053;-85
2021/12/16 07:04:02;;;;;;;18.85;7.65;;;5.30;99.90;;;;;;4860985;29;20057;-85
2021/12/16 07:06:31;;;;;;;15.50;8.00;;;5.20;99.90;;;;;;4860050;29;20057;-85
2021/12/16 07:09:01;;;;;;;19.60;8.02;;;5.20;99.90;;;;;;4861180;29;20053;-85
2021/12/16 07:11:27;;;;;;;19.17;7.00;;;5.30;99.90;;;;;;4862680;29;20060;-84
2021/12/16 07:13:59;;;;;;;35.05;9.88;;;5.20;99.90;;;;;;4860894;29;20053;-85
2021/12/16 07:16:27;;;;;;;29.42;9.18;;;5.30;99.90;;;;;;4860818;29;20423;-85
2021/12/16 07:18:55;;;;;;;23.80;8.80;;;5.30;99.90;;;;;;4860965;29;20515;-85
2021/12/16 07:21:20;;;;;;;15.10;7.60;;;5.30;99.90;;;;;;4860848;29;20053;-86
2021/12/16 07:23:46;;;;;;;22.42;8.07;;;5.30;99.90;;;;;;4860692;29;20408;-85
2021/12/16 07:26:12;;;;;;;20.95;7.53;;;5.20;99.90;;;;;;4860789;29;20140;-85
2021/12/16 07:28:38;;;;;;;26.27;7.32;;;5.20;99.90;;;;;;4860556;29;20500;-85
2021/12/16 07:31:04;;;;;;;17.83;7.40;;;5.20;99.90;;;;;;4860298;29;20045;-85
2021/12/16 07:33:29;;;;;;;23.60;8.25;;;5.20;99.90;;;;;;4859975;29;20052;-85
2021/12/16 07:35:56;;;;;;;24.55;9.43;;;5.20;99.90;;;;;;4860047;29;20148;-85
2021/12/16 07:38:23;;;;;;;18.92;7.85;;;5.20;99.90;;;;;;4860384;29;20124;-85
2021/12/16 07:40:52;;;;;;;17.27;7.50;;;5.20;99.90;;;;;;4859399;29;20049;-85
2021/12/16 07:43:40;;;;;;;29.55;8.52;;;5.20;99.90;;;;;;4861488;29;20094;-86
2021/12/16 07:46:06;;;;;;;21.30;8.40;;;5.10;99.90;;;;;;4860225;29;20506;-88
2021/12/16 07:48:32;;;;;;;22.20;8.23;;;5.10;99.90;;;;;;4853091;29;20045;-85
2021/12/16 07:51:00;;;;;;;20.75;8.63;;;5.10;99.90;;;;;;4841581;29;20042;-90
2021/12/16 07:53:27;;;;;;;17.05;8.88;;;5.10;99.90;;;;;;4841476;29;20379;-88
2021/12/16 07:55:53;;;;;;;54.97;11.35;;;5.10;99.90;;;;;;4841736;29;20061;-84
2021/12/16 07:58:19;;;;;;;22.63;8.82;;;5.10;99.90;;;;;;4841673;29;20137;-85
2021/12/16 08:00:46;;;;;;;24.55;9.38;;;5.10;99.90;;;;;;4845551;29;20374;-85
2021/12/16 08:03:13;;;;;;;29.35;9.77;;;5.10;99.90;;;;;;4841493;29;20106;-85
2021/12/16 08:05:46;;;;;;;36.65;9.75;;;5.10;99.90;;;;;;4841086;29;20062;-85
2021/12/16 08:08:12;;;;;;;;;;;5.10;99.90;;;;;;4841786;29;20483;-85
2021/12/16 08:10:37;;;;;;;31.50;9.65;;;5.10;99.90;;;;;;4841437;29;20373;-85
2021/12/16 08:13:04;;;;;;;22.15;9.23;;;5.10;99.90;;;;;;4841351;29;20061;-85
2021/12/16 08:15:30;;;;;;;20.45;10.10;;;5.20;99.90;;;;;;4841071;29;20106;-88
2021/12/16 08:17:56;;;;;;;40.83;10.27;;;5.20;99.90;;;;;;4843496;29;20410;-88
2021/12/16 08:20:22;;;;;;;24.42;9.85;;;5.20;99.90;;;;;;4845125;29;20474;-86
2021/12/16 08:22:52;;;;;;;24.73;9.35;;;5.20;99.90;;;;;;4844705;29;20081;-87
2021/12/16 08:25:20;;;;;;;18.75;9.55;;;5.20;99.90;;;;;;4844950;29;20501;-87
2021/12/16 08:27:47;;;;;;;24.98;10.15;;;5.20;99.90;;;;;;4844899;29;20121;-88
2021/12/16 08:30:18;;;;;;;19.30;9.43;;;5.20;99.90;;;;;;4844974;29;20065;-88
2021/12/16 08:32:44;;;;;;;22.55;11.05;;;5.30;99.90;;;;;;4845109;29;20053;-85
2021/12/16 08:35:11;;;;;;;26.08;11.48;;;5.30;99.90;;;;;;4844789;29;20434;-85
2021/12/16 08:37:39;;;;;;;62.33;14.35;;;5.30;99.90;;;;;;4844720;29;20062;-85
2021/12/16 08:40:09;;;;;;;27.60;12.27;;;5.30;99.90;;;;;;4846105;29;20054;-85
2021/12/16 08:42:34;;;;;;;57.78;12.38;;;5.40;99.90;;;;;;4844540;29;20106;-85
2021/12/16 08:45:00;;;;;;;51.53;12.65;;;5.40;99.90;;;;;;4844583;29;20136;-86
2021/12/16 08:47:26;;;;;;;27.73;12.13;;;5.50;99.90;;;;;;4844604;29;20101;-86
2021/12/16 08:49:52;;;;;;;24.70;11.85;;;5.50;99.90;;;;;;4846536;29;20049;-85
2021/12/16 08:52:21;;;;;;;40.63;12.15;;;5.50;99.90;;;;;;4849234;29;20066;-86
2021/12/16 08:54:48;;;;;;;27.00;11.73;;;5.50;99.90;;;;;;4857667;29;20494;-86
2021/12/16 08:57:16;;;;;;;36.55;12.55;;;5.50;99.90;;;;;;4844359;29;20056;-86
2021/12/16 08:59:43;;;;;;;28.73;12.25;;;5.50;99.90;;;;;;4844400;29;20068;-85
2021/12/16 09:02:09;;;;;;;61.90;14.70;;;5.50;99.90;;;;;;4848047;29;20054;-85
2021/12/16 09:04:37;;;;;;;34.05;12.32;;;5.50;99.90;;;;;;4847774;29;20050;-85
2021/12/16 09:07:07;;;;;;;108.85;18.33;;;5.60;99.90;;;;;;4844354;29;20070;-85
2021/12/16 09:09:35;;;;;;;124.80;19.42;;;5.60;99.90;;;;;;4844242;29;20053;-84
2021/12/16 09:12:25;;;;;;;92.13;15.63;;;5.60;99.90;;;;;;4843985;29;20382;-84
2021/12/16 09:14:50;;;;;;;72.90;15.90;;;5.70;99.90;;;;;;4847127;29;20490;-84
2021/12/16 09:17:16;;;;;;;68.85;17.55;;;5.70;99.90;;;;;;4860342;29;20056;-84
2021/12/16 09:19:47;;;;;;;30.98;13.30;;;5.80;99.90;;;;;;4858181;29;20094;-85
2021/12/16 09:22:16;;;;;;;25.02;12.60;;;5.80;99.90;;;;;;4856076;29;20394;-85
2021/12/16 09:24:42;;;;;;;36.60;13.70;;;5.80;99.90;;;;;;4854555;29;20057;-86
2021/12/16 09:27:08;;;;;;;102.13;15.77;;;5.80;99.90;;;;;;4845194;29;20052;-86
2021/12/16 09:29:34;;;;;;;26.58;12.73;;;5.90;99.90;;;;;;4845762;29;20122;-86
2021/12/16 09:32:02;;;;;;;32.63;13.63;;;5.90;99.90;;;;;;4844092;29;20045;-85
2021/12/16 09:34:29;;;;;;;28.92;11.98;;;6.00;99.90;;;;;;4842972;29;20081;-87
2021/12/16 09:36:55;;;;;;;56.10;14.52;;;6.00;99.90;;;;;;4854449;29;20045;-85
2021/12/16 09:39:24;;;;;;;94.50;16.35;;;6.10;99.90;;;;;;4881007;29;20105;-85
2021/12/16 09:42:00;;;;;;;54.95;13.77;;;6.00;99.90;;;;;;4880449;29;20060;-87
2021/12/16 09:44:29;;;;;;;53.28;12.55;;;6.10;99.90;;;;;;4881484;29;20041;-89
2021/12/16 09:46:58;;;;;;;29.60;12.85;;;6.20;99.90;;;;;;4880330;29;20052;-90
2021/12/16 09:49:24;;;;;;;30.55;12.07;;;6.20;99.90;;;;;;4880542;29;20086;-90
2021/12/16 09:51:53;;;;;;;36.58;12.65;;;6.20;99.90;;;;;;4880591;29;20056;-86
2021/12/16 09:54:24;;;;;;;47.63;13.80;;;6.30;99.90;;;;;;4880379;29;20151;-87
2021/12/16 09:56:50;;;;;;;27.83;12.52;;;6.30;99.90;;;;;;4879515;29;20104;-86
2021/12/16 09:59:17;;;;;;;28.02;13.18;;;6.40;99.90;;;;;;4880092;29;20735;-87
2021/12/16 10:01:49;;;;;;;28.20;11.90;;;6.30;99.90;;;;;;4880205;29;20131;-86
2021/12/16 10:04:19;;;;;;;29.38;11.35;;;6.40;99.90;;;;;;4880115;29;20047;-87
2021/12/16 10:06:48;;;;;;;37.28;11.98;;;6.50;99.90;;;;;;4879922;29;20049;-91
2021/12/16 10:09:14;;;;;;;34.22;11.82;;;6.50;99.90;;;;;;4881265;29;20048;-83
2021/12/16 10:11:44;;;;;;;35.92;11.98;;;6.50;99.90;;;;;;4855700;29;20061;-82
2021/12/16 10:19:33;;;;;;;33.85;11.55;;;6.70;99.90;;;;;;4861182;29;20054;-83
2021/12/16 10:22:20;;;;;;;36.83;12.60;;;6.70;99.90;;;;;;4861352;29;20536;-83
2021/12/16 10:24:48;;;;;;;32.75;11.93;;;6.80;99.90;;;;;;4861477;29;20049;-83
2021/12/16 10:27:25;;;;;;;34.10;10.98;;;6.80;99.90;;;;;;4861395;29;20097;-83
2021/12/16 10:30:01;;;;;;;42.83;12.50;;;6.90;99.90;;;;;;4861253;29;20041;-82
2021/12/16 10:32:42;;;;;;;38.85;12.73;;;6.80;99.90;;;;;;4861258;29;20093;-83
2021/12/16 10:35:28;;;;;;;60.17;12.68;;;6.90;99.90;;;;;;4861340;29;20104;-82
2021/12/16 10:37:58;;;;;;;32.47;11.50;;;7.00;99.90;;;;;;4860926;29;20042;-83
2021/12/16 10:40:46;;;;;;;41.85;12.23;;;7.00;99.90;;;;;;4860264;29;20073;-83
2021/12/16 10:43:15;;;;;;;52.90;12.85;;;7.00;99.90;;;;;;4861004;29;20414;-84
2021/12/16 10:45:46;;;;;;;71.90;13.60;;;7.10;99.90;;;;;;4861030;29;20061;-84
2021/12/16 10:48:23;;;;;;;47.53;13.00;;;7.10;99.90;;;;;;4861119;29;20062;-83
2021/12/16 10:51:16;;;;;;;41.60;11.52;;;7.10;99.90;;;;;;4861395;29;20057;-83
2021/12/16 10:53:53;;;;;;;42.90;13.07;;;7.10;99.90;;;;;;4852490;29;20058;-83
2021/12/16 10:56:27;;;;;;;49.40;11.88;;;7.10;99.90;;;;;;4861154;29;20084;-83
2021/12/16 10:59:00;;;;;;;43.90;11.48;;;7.10;99.90;;;;;;4862351;29;20089;-83
2021/12/16 11:01:35;;;;;;;53.40;11.65;;;7.10;99.90;;;;;;4861132;29;20066;-83
2021/12/16 11:04:04;;;;;;;28.98;10.27;;;7.10;99.90;;;;;;4860990;29;20490;-83
2021/12/16 11:06:34;;;;;;;41.25;11.27;;;7.20;99.90;;;;;;4860627;29;20406;-83
2021/12/16 11:09:33;;;;;;;33.45;10.27;;;7.20;99.90;;;;;;4862129;29;20049;-83
2021/12/16 11:12:14;;;;;;;35.17;10.50;;;7.20;99.90;;;;;;4861843;29;20061;-83
2021/12/16 11:14:43;;;;;;;53.55;11.90;;;7.30;99.90;;;;;;4860855;29;20056;-83
2021/12/16 11:17:13;;;;;;;64.82;12.18;;;7.30;99.90;;;;;;4860869;29;20049;-83
2021/12/16 11:19:47;;;;;;;59.35;12.52;;;7.40;99.90;;;;;;4861933;29;20125;-83
2021/12/16 11:22:16;;;;;;;68.85;12.85;;;7.30;99.90;;;;;;4860527;29;20053;-83
2021/12/16 11:24:42;;;;;;;49.47;11.52;;;7.40;99.90;;;;;;4860405;29;20443;-83
2021/12/16 11:27:34;;;;;;;82.05;13.63;;;7.40;99.90;;;;;;4860609;29;20053;-83
2021/12/16 11:30:18;;;;;;;53.25;11.27;;;7.50;99.90;;;;;;4860623;29;20124;-83
2021/12/16 11:32:47;;;;;;;39.50;11.25;;;7.50;99.90;;;;;;4860403;29;20501;-83
2021/12/16 11:35:33;;;;;;;31.05;11.82;;;7.50;99.90;;;;;;4860491;29;20476;-83
2021/12/16 11:38:05;;;;;;;84.88;19.00;;;7.50;99.90;;;;;;4860236;29;20087;-83
2021/12/16 11:40:53;;;;;;;56.83;15.07;;;7.60;99.90;;;;;;4860582;29;20125;-83
2021/12/16 11:43:32;;;;;;;39.55;12.00;;;7.60;99.90;;;;;;4860480;29;20438;-83
2021/12/16 11:45:58;;;;;;;47.33;12.23;;;7.60;99.90;;;;;;4861369;29;20075;-83
2021/12/16 11:48:35;;;;;;;43.83;12.48;;;7.70;99.90;;;;;;4860180;29;20098;-83
2021/12/16 11:51:13;;;;;;;50.38;15.57;;;7.70;99.90;;;;;;4860569;29;20053;-83
2021/12/16 11:53:46;;;;;;;39.72;15.25;;;7.80;99.90;;;;;;4861261;29;20095;-83
2021/12/16 11:56:13;;;;;;;52.85;14.85;;;7.80;99.90;;;;;;4860561;29;20089;-83
2021/12/16 11:58:42;;;;;;;50.75;16.55;;;7.80;99.90;;;;;;4859924;29;20413;-83
2021/12/16 12:01:15;;;;;;;67.00;32.58;;;7.90;99.90;;;;;;4859931;29;20088;-83
2021/12/16 12:03:41;;;;;;;44.92;16.90;;;7.90;99.90;;;;;;4860325;29;20053;-83
2021/12/16 12:06:21;;;;;;;56.42;17.10;;;7.90;99.90;;;;;;4868690;29;20489;-83
2021/12/16 12:08:48;;;;;;;78.80;37.28;;;8.00;99.90;;;;;;4863435;29;20056;-83
2021/12/16 12:11:21;;;;;;;56.25;19.88;;;8.00;99.90;;;;;;4863040;29;20053;-83
2021/12/16 12:14:01;;;;;;;48.88;17.08;;;8.00;99.90;;;;;;4863234;29;20053;-83
2021/12/16 12:16:36;;;;;;;54.85;17.02;;;8.10;99.90;;;;;;4862963;29;20096;-83
2021/12/16 12:19:17;;;;;;;46.63;15.27;;;8.10;99.90;;;;;;4862868;29;20493;-83
2021/12/16 12:22:00;;;;;;;54.95;16.67;;;8.10;99.90;;;;;;4862783;29;20489;-83
2021/12/16 12:24:38;;;;;;;48.90;15.57;;;8.20;99.90;;;;;;4862966;29;20374;-83
2021/12/16 12:27:11;;;;;;;56.10;16.85;;;8.20;99.90;;;;;;4863071;29;20477;-83
2021/12/16 12:29:44;;;;;;;;;;;8.20;99.90;;;;;;4863221;29;20100;-83
2021/12/16 12:32:15;;;;;;;59.15;17.80;;;8.20;99.90;;;;;;4863037;29;19959;-83
2021/12/16 12:34:45;;;;;;;53.58;18.05;;;8.30;99.90;;;;;;4862993;29;20124;-83
2021/12/16 12:37:14;;;;;;;58.20;24.48;;;8.30;99.90;;;;;;4862791;29;20037;-83
2021/12/16 12:39:44;;;;;;;89.28;22.63;;;8.30;99.90;;;;;;4862995;29;20053;-83
2021/12/16 12:42:12;;;;;;;69.40;21.38;;;8.40;99.90;;;;;;4862773;29;20088;-83
2021/12/16 12:44:39;;;;;;;78.35;23.27;;;8.40;99.90;;;;;;4862959;29;20060;-83
2021/12/16 12:47:12;;;;;;;89.68;33.08;;;8.40;99.90;;;;;;4862901;29;20085;-83
2021/12/16 12:49:37;;;;;;;77.63;27.63;;;8.40;99.90;;;;;;4862717;29;20045;-83
2021/12/16 12:52:08;;;;;;;70.95;27.52;;;8.40;99.90;;;;;;4862786;29;20045;-83
2021/12/16 12:54:36;;;;;;;74.65;21.95;;;8.40;99.90;;;;;;4862910;29;20045;-83
2021/12/16 12:57:24;;;;;;;64.28;20.02;;;8.50;99.90;;;;;;4862530;29;20053;-83
2021/12/16 12:59:50;;;;;;;92.78;23.88;;;8.50;99.90;;;;;;4862783;29;20053;-83
2021/12/16 13:02:29;;;;;;;80.72;28.70;;;8.50;99.90;;;;;;4879137;29;20049;-83
2021/12/16 13:05:06;;;;;;;68.57;24.38;;;8.50;99.90;;;;;;4864832;29;20393;-83
2021/12/16 13:07:37;;;;;;;74.32;22.40;;;8.50;99.90;;;;;;4865752;29;20064;-83
2021/12/16 13:10:22;;;;;;;63.10;20.65;;;8.50;99.90;;;;;;4865882;29;20449;-83
2021/12/16 13:13:18;;;;;;;62.67;20.65;;;8.60;99.90;;;;;;4865984;29;20049;-83
2021/12/16 13:15:50;;;;;;;66.68;21.13;;;8.60;99.90;;;;;;4865734;29;20041;-83
2021/12/16 13:30:05;;;;;;;72.88;19.38;;;8.60;99.90;;;;;;4882354;29;20053;-83
2021/12/16 13:32:42;;;;;;;52.95;19.73;;;8.60;99.90;;;;;;4882177;29;20049;-83
2021/12/16 13:37:55;;;;;;;61.28;20.45;;;8.60;99.90;;;;;;4882131;29;20044;-83
2021/12/16 13:40:25;;;;;;;46.53;18.23;;;8.60;99.90;;;;;;4882389;29;20057;-83
2021/12/16 13:42:59;;;;;;;53.92;16.52;;;8.60;99.90;;;;;;4865438;29;20434;-83
2021/12/16 13:45:51;;;;;;;54.08;16.08;;;8.60;99.90;;;;;;4865520;29;20049;-83
2021/12/16 14:05:25;;;;;;;53.83;16.10;;;8.60;99.90;;;;;;4864937;29;20057;-83
2021/12/16 14:07:58;;;;;;;56.10;16.85;;;8.60;99.90;;;;;;4881065;29;20089;-83
2021/12/16 14:10:49;;;;;;;56.03;16.00;;;8.60;99.90;;;;;;4864873;29;20061;-83
2021/12/16 14:39:09;;;;;;;68.80;10.38;;;8.60;99.90;;;;;;4881255;29;20061;-83
2021/12/16 14:47:28;;;;;;;41.17;10.27;;;8.60;99.90;;;;;;4836128;29;20057;-83
2021/12/16 14:49:54;;;;;;;39.80;9.55;;;8.60;99.90;;;;;;4864119;29;20401;-83
2021/12/16 14:52:26;;;;;;;44.63;9.65;;;8.50;99.90;;;;;;4864156;29;20477;-83
2021/12/16 14:55:13;;;;;;;37.03;9.17;;;8.50;99.90;;;;;;4880869;29;20072;-83
2021/12/16 14:57:42;;;;;;;62.67;11.00;;;8.50;99.90;;;;;;4864261;29;20088;-83
2021/12/16 15:00:09;;;;;;;49.22;11.43;;;8.40;99.90;;;;;;4863914;29;20049;-83
2021/12/16 15:02:38;;;;;;;46.05;9.60;;;8.50;99.90;;;;;;4863882;29;20057;-83
2021/12/16 15:05:20;;;;;;;51.45;9.73;;;8.40;99.90;;;;;;4863919;29;20128;-83
2021/12/16 15:07:46;;;;;;;39.40;9.03;;;8.40;99.90;;;;;;4863999;29;20057;-84
2021/12/16 15:10:14;;;;;;;50.42;10.70;;;8.40;99.90;;;;;;4863781;29;20139;-84
2021/12/16 15:12:48;;;;;;;58.20;10.85;;;8.40;99.90;;;;;;4863558;29;20064;-88
2021/12/16 15:15:29;;;;;;;45.13;9.88;;;8.40;99.90;;;;;;4863351;29;20413;-85
2021/12/16 15:45:13;;;;;;;46.33;11.05;;;8.30;99.90;;;;;;4863707;29;20120;-84
2021/12/16 15:47:43;;;;;;;59.05;12.32;;;8.20;99.90;;;;;;4863378;29;20400;-83
2021/12/16 15:50:11;;;;;;;72.53;12.52;;;8.30;99.90;;;;;;4863353;29;20049;-83
2021/12/16 15:52:42;;;;;;;101.93;13.82;;;8.30;99.90;;;;;;4863284;29;20490;-83
2021/12/16 15:55:15;;;;;;;38.75;10.43;;;8.30;99.90;;;;;;4863606;29;20112;-83
2021/12/16 15:57:40;;;;;;;54.20;12.27;;;8.30;99.90;;;;;;4863441;29;20049;-83
2021/12/16 16:00:15;;;;;;;53.17;11.38;;;8.30;99.90;;;;;;4863519;29;20056;-83
2021/12/16 16:02:41;;;;;;;60.25;11.73;;;8.20;99.90;;;;;;4863107;29;20052;-83
2021/12/16 16:05:08;;;;;;;89.32;14.05;;;8.20;99.90;;;;;;4880002;29;20053;-83
2021/12/16 16:07:37;;;;;;;43.40;11.02;;;8.30;99.90;;;;;;4879636;29;20067;-83
2021/12/16 16:10:05;;;;;;;78.63;13.07;;;8.20;99.90;;;;;;4863454;29;20057;-83
2021/12/16 16:12:33;;;;;;;49.08;11.27;;;8.20;99.90;;;;;;4863452;29;20511;-83
2021/12/16 16:15:16;;;;;;;43.38;10.77;;;8.30;99.90;;;;;;4863169;29;20052;-83
2021/12/16 16:18:36;;;;;;;75.03;12.70;;;8.20;99.90;;;;;;4863338;29;20401;-83
2021/12/16 16:20:47;;;;;;;56.05;11.45;;;8.20;99.90;;;;;;4855525;29;20053;-83
2021/12/16 16:23:16;;;;;;;51.78;11.95;;;8.20;99.90;;;;;;4863384;29;20065;-85
2021/12/16 16:25:43;;;;;;;52.45;11.68;;;8.20;99.90;;;;;;4879822;29;20068;-83
2021/12/16 16:28:11;;;;;;;50.00;11.65;;;8.20;99.90;;;;;;4879656;29;20059;-87
2021/12/16 16:30:38;;;;;;;48.92;10.23;;;8.20;99.90;;;;;;4862989;29;20053;-83
2021/12/16 16:33:15;;;;;;;67.53;11.98;;;8.20;99.90;;;;;;4862981;29;20055;-83
2021/12/16 16:36:04;;;;;;;55.13;12.07;;;8.20;99.90;;;;;;4879681;29;20060;-83
2021/12/16 16:38:43;;;;;;;93.18;12.30;;;8.20;99.90;;;;;;4864395;29;20053;-83
2021/12/16 16:41:12;;;;;;;74.43;12.52;;;8.20;99.90;;;;;;4867088;29;20056;-83
2021/12/16 16:43:47;;;;;;;46.60;11.77;;;8.20;99.90;;;;;;4866412;29;20570;-83
2021/12/16 16:46:18;;;;;;;46.38;10.27;;;8.20;99.90;;;;;;4867329;29;20051;-83
2021/12/16 16:51:43;;;;;;;62.42;11.98;;;8.20;99.90;;;;;;4866437;29;20081;-83
2021/12/16 16:54:18;;;;;;;60.92;12.38;;;8.20;99.90;;;;;;4866744;29;20063;-83
2021/12/16 16:57:04;;;;;;;93.45;14.13;;;8.10;99.90;;;;;;4866430;29;20064;-83
2021/12/16 16:59:35;;;;;;;122.03;17.45;;;8.20;99.90;;;;;;4866267;29;20053;-83
2021/12/16 17:02:14;;;;;;;70.75;15.40;;;8.20;99.90;;;;;;4883038;29;20104;-83
2021/12/16 17:04:40;;;;;;;69.40;14.82;;;8.20;99.90;;;;;;4866505;29;20071;-83
2021/12/16 17:07:07;;;;;;;85.38;14.43;;;8.10;99.90;;;;;;4865955;29;20061;-83
2021/12/16 17:09:37;;;;;;;83.35;15.98;;;8.10;99.90;;;;;;4866019;29;20128;-83